Terminal Aerodrome Forecast
Issued by NWS

Home | Current Version | Previous Version | Graphics & Text | Print | Product List | Glossary On
Versions: 1 2 3 4 5 6 7 8 9 10 11 12 13 14 15 16 17 18 19 20 21
000
FTUS43 KMPX 271657 AAA
TAFRWF
TAF AMD
KRWF 271657Z 2717/2812 08018G27KT P6SM -RA SCT020 OVC035
      TEMPO 2717/2721 3SM RA BKN025
     FM272100 09016G24KT 6SM -RA BR OVC025
     FM280300 07011G17KT 3SM -RA BR OVC015=

USA.gov is the U.S. government's official web portal to all federal, state and local government web resources and services.